Time;durP1;ratioP1;P1;durP2;ratioP2;P2;SDS_P1;SDS_P2;PMS_P1;PMS_P2;Temp;Humidity;BMP_temperature;BMP_pressure;BME280_temperature;BME280_humidity;BME280_pressure;Samples;Min_cycle;Max_cycle;Signal;HPM_P1;HPM_P2
2022/06/09 00:00:01;;;;;;;8.93;6.85;;;21.70;20.30;;;;;;5096062;28;20032;-51
2022/06/09 00:02:30;;;;;;;7.80;6.55;;;21.80;20.20;;;;;;5083701;28;20079;-47
2022/06/09 00:04:58;;;;;;;9.90;7.97;;;21.80;20.80;;;;;;5084552;28;20020;-52
2022/06/09 00:07:25;;;;;;;11.55;6.95;;;21.80;20.70;;;;;;5087987;28;20466;-52
2022/06/09 00:09:58;;;;;;;9.77;8.25;;;21.60;20.50;;;;;;5088660;28;20024;-48
2022/06/09 00:12:25;;;;;;;11.30;9.57;;;21.80;21.00;;;;;;5094119;28;20024;-52
2022/06/09 00:14:51;;;;;;;10.32;8.85;;;21.70;21.00;;;;;;5086863;28;20040;-49
2022/06/09 00:17:17;;;;;;;9.75;8.02;;;21.90;21.30;;;;;;5067427;28;20024;-50
2022/06/09 00:19:44;;;;;;;10.15;8.93;;;21.70;21.60;;;;;;5094636;28;20027;-50
2022/06/09 00:22:10;;;;;;;9.65;8.65;;;21.70;21.60;;;;;;5086324;28;20481;-47
2022/06/09 00:24:35;;;;;;;10.57;9.02;;;21.80;21.90;;;;;;5086870;28;20024;-49
2022/06/09 00:27:01;;;;;;;9.43;8.43;;;21.70;21.90;;;;;;5086129;28;20043;-50
2022/06/09 00:29:26;;;;;;;8.95;8.13;;;21.90;21.60;;;;;;5060128;28;20020;-50
2022/06/09 00:31:52;;;;;;;9.63;8.23;;;21.70;21.40;;;;;;5075675;28;20074;-52
2022/06/09 00:34:18;;;;;;;14.60;8.93;;;21.70;21.50;;;;;;5094556;28;20119;-49
2022/06/09 00:36:43;;;;;;;10.40;7.55;;;21.60;21.60;;;;;;5069429;28;20021;-50
2022/06/09 00:39:09;;;;;;;9.32;8.35;;;21.80;21.80;;;;;;5094594;28;20028;-48
2022/06/09 00:41:43;;;;;;;10.55;9.27;;;21.70;21.50;;;;;;5075870;28;20023;-53
2022/06/09 00:44:20;;;;;;;9.30;8.40;;;21.70;21.30;;;;;;5081595;28;20035;-52
2022/06/09 00:47:06;;;;;;;9.80;8.25;;;21.70;21.60;;;;;;5080792;28;20066;-52
2022/06/09 00:49:34;;;;;;;8.88;7.93;;;21.70;21.00;;;;;;5079374;28;20025;-50
2022/06/09 00:52:03;;;;;;;8.00;7.20;;;21.70;21.20;;;;;;5091196;28;20028;-50
2022/06/09 00:54:37;;;;;;;8.43;7.68;;;21.70;21.30;;;;;;5077107;28;20036;-52
2022/06/09 00:57:08;;;;;;;7.65;6.85;;;21.50;21.30;;;;;;5093535;28;20541;-49
2022/06/09 00:59:37;;;;;;;8.95;7.47;;;21.50;21.60;;;;;;5095453;28;20174;-50
2022/06/09 01:02:08;;;;;;;9.95;8.55;;;21.60;21.00;;;;;;5077718;28;20384;-52
2022/06/09 01:04:34;;;;;;;11.43;8.88;;;21.50;21.30;;;;;;5082448;28;20048;-50
2022/06/09 01:07:09;;;;;;;10.18;8.82;;;21.70;21.50;;;;;;5092659;28;20020;-52
2022/06/09 01:09:36;;;;;;;10.85;9.38;;;21.50;21.50;;;;;;5085559;28;20028;-53
2022/06/09 01:12:01;;;;;;;10.00;9.02;;;21.50;21.40;;;;;;5079506;28;20490;-51
2022/06/09 01:14:32;;;;;;;12.55;9.80;;;21.60;21.20;;;;;;5079713;28;20085;-53
2022/06/09 01:17:13;;;;;;;11.05;9.73;;;21.40;21.10;;;;;;5079919;28;20028;-50
2022/06/09 01:19:41;;;;;;;10.77;9.75;;;21.50;21.40;;;;;;5079870;28;20039;-51
2022/06/09 01:22:33;;;;;;;10.20;9.10;;;21.30;21.20;;;;;;5079615;28;20025;-46
2022/06/09 01:24:58;;;;;;;14.77;10.45;;;21.40;21.70;;;;;;5043446;28;20050;-49
2022/06/09 01:27:45;;;;;;;11.75;10.07;;;21.60;21.50;;;;;;5080047;28;20123;-49
2022/06/09 01:30:41;;;;;;;10.93;9.27;;;21.30;20.50;;;;;;5072803;28;20029;-46
2022/06/09 01:33:34;;;;;;;10.85;9.73;;;21.20;20.70;;;;;;5082776;28;20052;-52
2022/06/09 01:36:04;;;;;;;11.48;10.30;;;21.40;21.00;;;;;;5087659;28;20498;-49
2022/06/09 01:38:30;;;;;;;12.35;10.90;;;21.40;21.10;;;;;;5087588;28;20389;-48
2022/06/09 01:40:56;;;;;;;11.60;10.25;;;21.10;21.20;;;;;;5079013;28;20032;-52
2022/06/09 01:43:21;;;;;;;13.30;10.23;;;21.40;21.50;;;;;;5067061;28;20036;-51
2022/06/09 01:46:19;;;;;;;11.23;10.10;;;21.20;21.40;;;;;;5046151;28;20035;-50
2022/06/09 01:48:46;;;;;;;12.50;11.15;;;21.20;21.50;;;;;;5047215;28;20024;-50
2022/06/09 01:51:16;;;;;;;12.63;11.05;;;21.30;21.30;;;;;;5080732;28;20038;-50
2022/06/09 01:53:57;;;;;;;11.52;10.07;;;21.30;21.30;;;;;;5059841;28;20070;-52
2022/06/09 01:56:25;;;;;;;14.15;10.73;;;21.20;20.80;;;;;;5081874;28;20382;-52
2022/06/09 01:58:55;;;;;;;11.65;9.30;;;21.20;20.90;;;;;;5078035;28;20056;-49
2022/06/09 02:01:25;;;;;;;11.27;10.10;;;21.10;20.80;;;;;;5091319;28;20032;-48
2022/06/09 02:03:54;;;;;;;11.43;10.20;;;21.10;20.20;;;;;;5081928;28;20056;-50
2022/06/09 02:06:21;;;;;;;10.57;9.48;;;21.20;20.50;;;;;;5085042;28;20380;-48
2022/06/09 02:08:47;;;;;;;10.77;9.77;;;21.10;21.10;;;;;;5073001;28;20075;-50
2022/06/09 02:11:13;;;;;;;10.13;9.25;;;21.10;20.50;;;;;;5083292;28;20028;-53
2022/06/09 02:13:45;;;;;;;9.85;8.95;;;21.30;20.50;;;;;;5073084;28;20036;-50
2022/06/09 02:16:15;;;;;;;11.45;9.73;;;21.10;20.30;;;;;;5080197;28;20358;-50
2022/06/09 02:18:47;;;;;;;9.75;8.85;;;21.10;20.20;;;;;;5056259;28;20024;-53
2022/06/09 02:21:19;;;;;;;9.77;8.95;;;21.20;20.20;;;;;;5079763;28;20032;-50
2022/06/09 02:23:47;;;;;;;9.57;8.68;;;21.10;20.10;;;;;;5073473;28;20031;-52
2022/06/09 02:26:14;;;;;;;9.73;8.77;;;21.10;20.00;;;;;;5067689;28;20040;-50
2022/06/09 02:28:40;;;;;;;10.63;7.47;;;21.10;20.10;;;;;;5075636;28;20039;-50
2022/06/09 02:31:06;;;;;;;9.15;7.38;;;21.20;20.30;;;;;;5071762;28;20032;-51
2022/06/09 02:33:32;;;;;;;6.00;5.40;;;21.00;20.40;;;;;;5059970;28;20123;-52
2022/06/09 02:35:57;;;;;;;7.00;6.25;;;21.10;19.90;;;;;;5076686;28;20036;-50
2022/06/09 02:38:23;;;;;;;6.07;5.00;;;21.20;19.60;;;;;;5092001;28;20024;-49
2022/06/09 02:40:50;;;;;;;6.05;5.43;;;21.10;19.30;;;;;;5087220;28;20123;-51
2022/06/09 02:43:16;;;;;;;5.75;5.05;;;21.00;19.20;;;;;;5054003;28;20359;-49
2022/06/09 02:45:42;;;;;;;6.38;5.20;;;21.20;19.50;;;;;;5055270;28;20024;-50
2022/06/09 02:48:08;;;;;;;5.65;5.10;;;21.20;19.00;;;;;;5076380;28;20089;-50
2022/06/09 02:50:35;;;;;;;6.80;5.93;;;21.10;18.80;;;;;;5077715;28;20363;-49
2022/06/09 02:53:01;;;;;;;7.60;6.38;;;21.10;18.50;;;;;;5074116;28;20028;-52
2022/06/09 02:55:27;;;;;;;7.15;6.20;;;21.00;18.10;;;;;;5072036;28;20424;-47
2022/06/09 02:57:53;;;;;;;7.60;6.90;;;21.00;18.60;;;;;;5083408;28;20039;-47
2022/06/09 03:00:19;;;;;;;8.68;5.80;;;21.10;19.00;;;;;;5079136;28;20036;-50
2022/06/09 03:02:52;;;;;;;7.82;6.45;;;21.20;18.80;;;;;;5091103;28;20117;-50
2022/06/09 03:05:18;;;;;;;9.40;7.40;;;21.00;18.10;;;;;;5089435;28;20024;-49
2022/06/09 03:07:43;;;;;;;7.63;6.93;;;21.10;18.70;;;;;;5064506;28;20390;-52
2022/06/09 03:10:09;;;;;;;8.20;7.40;;;21.00;18.60;;;;;;5062846;28;20052;-51
2022/06/09 03:12:35;;;;;;;10.18;7.47;;;21.00;18.40;;;;;;5082709;28;20024;-51
2022/06/09 03:15:01;;;;;;;9.20;8.30;;;21.00;18.50;;;;;;5071386;28;20036;-48
2022/06/09 03:17:27;;;;;;;10.35;9.32;;;21.00;18.50;;;;;;5083306;28;20052;-49
2022/06/09 03:19:53;;;;;;;12.38;11.15;;;21.10;18.60;;;;;;5073186;28;20517;-49
2022/06/09 03:22:19;;;;;;;14.18;12.80;;;20.80;18.90;;;;;;5082729;28;20081;-52
2022/06/09 03:24:44;;;;;;;14.02;12.20;;;20.80;19.00;;;;;;5083395;28;20024;-53
2022/06/09 03:27:10;;;;;;;14.98;13.07;;;21.00;19.20;;;;;;5088855;28;20115;-51
2022/06/09 03:29:36;;;;;;;14.98;12.57;;;20.90;19.40;;;;;;5089099;28;20028;-47
2022/06/09 03:32:02;;;;;;;15.55;14.05;;;20.70;19.40;;;;;;5075061;28;20033;-47
2022/06/09 03:34:27;;;;;;;14.20;12.63;;;20.80;19.60;;;;;;5075454;28;20033;-48
2022/06/09 03:36:53;;;;;;;14.07;12.75;;;20.80;19.50;;;;;;5085019;28;20453;-52
2022/06/09 03:39:18;;;;;;;13.45;12.15;;;20.90;19.50;;;;;;5078989;28;20068;-51
2022/06/09 03:41:44;;;;;;;14.90;13.40;;;21.00;19.60;;;;;;5068597;28;20363;-48
2022/06/09 03:44:10;;;;;;;15.30;13.80;;;20.70;19.70;;;;;;5075025;28;20044;-50
2022/06/09 03:46:35;;;;;;;14.57;13.18;;;20.90;20.10;;;;;;5076373;28;20462;-50
2022/06/09 03:49:02;;;;;;;17.30;13.85;;;20.90;19.90;;;;;;5056910;28;20028;-52
2022/06/09 03:51:28;;;;;;;14.07;12.73;;;20.80;19.60;;;;;;5082361;28;20056;-50
2022/06/09 03:53:53;;;;;;;19.35;13.32;;;20.80;19.60;;;;;;5076159;28;20573;-52
2022/06/09 03:56:20;;;;;;;14.68;13.18;;;20.70;19.80;;;;;;5083326;28;20496;-49
2022/06/09 03:58:46;;;;;;;15.50;12.98;;;20.60;20.00;;;;;;5075064;28;20032;-50
2022/06/09 04:01:17;;;;;;;15.20;13.70;;;20.70;20.00;;;;;;5078794;28;20485;-52
2022/06/09 04:03:44;;;;;;;13.63;12.23;;;20.90;20.00;;;;;;5089081;28;20124;-52
2022/06/09 04:06:15;;;;;;;14.48;13.18;;;20.80;19.70;;;;;;5077253;28;20024;-49
2022/06/09 04:08:41;;;;;;;14.43;12.93;;;20.80;19.60;;;;;;5090238;28;20036;-49
2022/06/09 04:11:07;;;;;;;15.23;13.27;;;20.80;19.40;;;;;;5077154;28;20028;-49
2022/06/09 04:13:32;;;;;;;13.77;12.40;;;20.90;19.50;;;;;;5078088;28;20385;-48
2022/06/09 04:15:59;;;;;;;14.25;12.75;;;20.80;19.50;;;;;;5076028;28;20415;-49
2022/06/09 04:18:24;;;;;;;16.15;14.40;;;20.80;19.50;;;;;;5079635;28;20176;-49
2022/06/09 04:20:50;;;;;;;13.85;11.95;;;20.80;19.50;;;;;;5078697;28;20115;-50
2022/06/09 04:23:16;;;;;;;15.85;11.50;;;20.80;19.40;;;;;;5088052;28;20066;-53
2022/06/09 04:25:41;;;;;;;13.35;11.50;;;20.80;19.40;;;;;;5075400;28;20017;-52
2022/06/09 04:28:07;;;;;;;15.38;12.02;;;20.80;19.40;;;;;;5081523;28;20029;-49
2022/06/09 04:30:32;;;;;;;13.75;12.15;;;20.80;19.50;;;;;;5088542;28;20020;-50
2022/06/09 04:32:58;;;;;;;14.13;12.70;;;20.80;19.30;;;;;;5083205;28;20120;-50
2022/06/09 04:35:25;;;;;;;16.05;14.32;;;20.80;19.50;;;;;;5078646;28;20052;-52
2022/06/09 04:38:00;;;;;;;14.20;12.88;;;20.90;19.60;;;;;;5082290;28;20031;-49
2022/06/09 04:40:27;;;;;;;15.35;13.75;;;20.80;19.50;;;;;;5074531;28;20060;-49
2022/06/09 04:42:53;;;;;;;14.38;13.05;;;20.90;19.60;;;;;;5083399;28;20478;-49
2022/06/09 04:45:19;;;;;;;15.68;13.73;;;20.90;19.40;;;;;;5074016;28;20059;-52
2022/06/09 04:47:45;;;;;;;16.33;14.73;;;21.00;19.40;;;;;;5086000;28;20053;-48
2022/06/09 04:50:12;;;;;;;16.92;15.23;;;20.90;19.40;;;;;;5082403;28;20032;-52
2022/06/09 04:52:38;;;;;;;16.35;14.55;;;20.90;19.60;;;;;;5083737;28;20478;-51
2022/06/09 04:55:05;;;;;;;15.70;14.20;;;20.90;20.10;;;;;;5088172;28;20537;-51
2022/06/09 04:57:31;;;;;;;15.70;14.13;;;21.00;20.00;;;;;;5075071;28;20115;-53
2022/06/09 04:59:56;;;;;;;17.92;16.00;;;21.00;19.70;;;;;;5076407;28;20107;-52
2022/06/09 05:02:22;;;;;;;16.55;14.98;;;20.90;19.80;;;;;;5084319;28;20056;-53
2022/06/09 05:04:48;;;;;;;17.30;15.50;;;21.00;19.90;;;;;;5073817;28;20529;-53
2022/06/09 05:07:13;;;;;;;15.65;14.15;;;21.10;19.90;;;;;;5076087;28;20035;-53
2022/06/09 05:09:39;;;;;;;15.77;14.07;;;21.00;19.70;;;;;;5062711;28;20060;-51
2022/06/09 05:12:04;;;;;;;15.10;13.23;;;21.10;19.90;;;;;;5076719;28;20390;-52
2022/06/09 05:14:31;;;;;;;14.23;12.77;;;21.10;19.70;;;;;;5074791;28;20037;-51
2022/06/09 05:16:56;;;;;;;13.90;12.57;;;20.90;19.60;;;;;;5078004;28;20033;-50
2022/06/09 05:19:22;;;;;;;14.40;12.90;;;20.90;19.80;;;;;;5074554;28;20051;-52
2022/06/09 05:21:48;;;;;;;12.57;11.38;;;21.10;19.60;;;;;;5078155;28;20032;-52
2022/06/09 05:24:13;;;;;;;12.38;11.27;;;21.00;19.10;;;;;;5087869;28;20100;-50
2022/06/09 05:26:39;;;;;;;12.98;11.65;;;21.20;19.60;;;;;;5085882;28;20122;-51
2022/06/09 05:29:05;;;;;;;11.93;10.82;;;20.90;19.10;;;;;;5080496;28;20020;-51
2022/06/09 05:31:30;;;;;;;12.93;11.65;;;21.10;19.00;;;;;;5085545;28;20032;-49
2022/06/09 05:33:56;;;;;;;11.35;10.35;;;21.20;18.90;;;;;;5077383;28;20123;-52
2022/06/09 05:36:21;;;;;;;12.45;9.88;;;21.20;18.70;;;;;;5074402;28;20060;-50
2022/06/09 05:44:51;;;;;;;10.07;8.98;;;21.10;18.40;;;;;;5073584;28;20036;-54
2022/06/09 05:47:19;;;;;;;9.13;8.23;;;21.00;18.00;;;;;;5067713;28;20032;-51
2022/06/09 05:49:47;;;;;;;8.98;8.05;;;21.20;18.10;;;;;;5074335;28;20028;-51
2022/06/09 05:52:17;;;;;;;9.00;8.10;;;21.20;17.20;;;;;;5073457;28;20091;-49
2022/06/09 05:54:43;;;;;;;11.10;8.82;;;21.20;17.60;;;;;;5088179;28;20036;-48
2022/06/09 05:57:09;;;;;;;8.57;7.47;;;21.30;17.90;;;;;;5086196;28;20147;-49
2022/06/09 05:59:34;;;;;;;7.07;6.20;;;21.40;17.40;;;;;;5079538;28;20069;-49
2022/06/09 06:02:00;;;;;;;7.18;6.57;;;21.20;16.40;;;;;;5073775;28;20028;-51
2022/06/09 06:04:26;;;;;;;7.00;4.70;;;21.30;16.30;;;;;;5074159;28;20043;-48
2022/06/09 06:06:52;;;;;;;5.93;4.65;;;21.20;15.60;;;;;;5065017;28;20074;-52
2022/06/09 06:09:21;;;;;;;5.20;4.70;;;21.30;15.40;;;;;;5058067;28;20438;-52
2022/06/09 06:11:47;;;;;;;5.28;4.78;;;21.30;14.70;;;;;;5065480;28;20476;-51
2022/06/09 06:14:14;;;;;;;7.22;4.50;;;21.30;14.50;;;;;;5082138;28;20028;-52
2022/06/09 06:16:40;;;;;;;4.25;3.85;;;21.20;14.00;;;;;;5078901;28;20016;-52
2022/06/09 06:19:08;;;;;;;3.38;3.08;;;21.30;13.70;;;;;;5073657;28;20499;-49
2022/06/09 06:21:35;;;;;;;3.83;3.40;;;21.40;13.50;;;;;;5082229;28;20032;-52
2022/06/09 06:24:01;;;;;;;4.32;3.92;;;21.50;13.30;;;;;;5073005;28;20092;-54
2022/06/09 06:26:26;;;;;;;4.90;4.50;;;21.40;13.10;;;;;;5083416;28;20020;-52
2022/06/09 06:28:52;;;;;;;4.32;3.92;;;21.40;13.00;;;;;;5076143;28;20036;-50
2022/06/09 06:31:18;;;;;;;5.95;5.18;;;21.50;12.70;;;;;;5073313;28;20075;-52
2022/06/09 06:33:44;;;;;;;5.32;4.03;;;21.40;12.90;;;;;;5077249;28;20036;-47
2022/06/09 06:36:09;;;;;;;4.95;3.90;;;21.40;12.70;;;;;;5086433;28;20035;-50
2022/06/09 06:38:37;;;;;;;5.57;4.40;;;21.50;12.50;;;;;;5072343;28;20055;-51
2022/06/09 06:41:05;;;;;;;5.65;4.40;;;21.40;12.10;;;;;;5073488;28;20009;-52
2022/06/09 06:43:31;;;;;;;6.20;5.10;;;21.50;11.70;;;;;;5077821;28;20028;-48
2022/06/09 06:45:56;;;;;;;5.50;4.35;;;21.70;12.00;;;;;;5076434;28;20086;-49
2022/06/09 06:48:22;;;;;;;5.75;4.70;;;21.60;12.40;;;;;;5078641;28;20031;-46
2022/06/09 06:50:48;;;;;;;5.88;4.15;;;21.60;12.10;;;;;;5055661;28;20404;-49
2022/06/09 06:53:14;;;;;;;6.40;5.07;;;21.60;11.20;;;;;;5056743;28;20059;-47
2022/06/09 06:55:40;;;;;;;5.78;5.03;;;21.60;11.00;;;;;;5076087;28;20020;-47
2022/06/09 06:58:06;;;;;;;4.95;3.65;;;21.60;11.00;;;;;;5090228;28;20032;-50
2022/06/09 07:00:32;;;;;;;3.95;3.65;;;21.70;10.00;;;;;;5063007;28;20714;-51
2022/06/09 07:02:58;;;;;;;5.15;3.08;;;21.80;11.00;;;;;;5065083;28;20066;-51
2022/06/09 07:05:24;;;;;;;3.67;2.95;;;21.70;10.20;;;;;;5076499;28;20028;-50
2022/06/09 07:07:50;;;;;;;4.47;3.00;;;21.90;10.20;;;;;;5081719;28;20350;-52
2022/06/09 07:10:15;;;;;;;3.38;3.08;;;21.80;9.90;;;;;;5072759;28;20032;-49
2022/06/09 07:12:42;;;;;;;5.70;3.08;;;21.90;9.40;;;;;;5073406;28;20020;-48
2022/06/09 07:15:10;;;;;;;5.32;2.90;;;21.90;9.60;;;;;;5078632;28;20154;-52
2022/06/09 07:17:36;;;;;;;3.17;2.65;;;22.10;9.40;;;;;;5086027;28;20028;-53
2022/06/09 07:20:03;;;;;;;3.70;2.70;;;21.90;9.30;;;;;;5080507;28;20037;-51
2022/06/09 07:22:28;;;;;;;5.50;2.78;;;22.00;9.00;;;;;;5076104;28;20119;-49
2022/06/09 07:24:55;;;;;;;4.38;2.90;;;22.00;9.10;;;;;;5065933;28;20623;-51
2022/06/09 07:27:22;;;;;;;4.75;3.55;;;22.00;9.10;;;;;;5086991;28;20024;-50
2022/06/09 07:29:48;;;;;;;3.30;2.88;;;22.10;8.80;;;;;;5061515;28;20492;-49
2022/06/09 07:32:14;;;;;;;4.47;3.80;;;22.00;8.70;;;;;;5077476;28;20021;-49
2022/06/09 07:34:39;;;;;;;5.57;4.35;;;22.00;8.50;;;;;;5073484;28;20486;-52
2022/06/09 07:37:05;;;;;;;3.92;3.58;;;22.00;8.60;;;;;;5075474;28;20263;-50
2022/06/09 07:39:31;;;;;;;4.45;3.85;;;22.20;8.10;;;;;;5078029;28;20035;-52
2022/06/09 07:41:57;;;;;;;6.28;4.75;;;22.20;8.80;;;;;;5071832;28;20078;-52
2022/06/09 07:44:24;;;;;;;4.88;4.47;;;22.20;8.40;;;;;;5088708;28;20393;-53
2022/06/09 07:46:50;;;;;;;5.05;4.63;;;22.20;7.50;;;;;;5071512;28;20024;-50
2022/06/09 07:49:15;;;;;;;5.72;4.68;;;22.20;8.30;;;;;;5074031;28;20087;-48
2022/06/09 07:51:42;;;;;;;4.53;4.10;;;22.30;8.20;;;;;;5071966;28;20024;-49
2022/06/09 07:54:08;;;;;;;7.80;4.43;;;22.30;8.00;;;;;;5074254;28;20036;-47
2022/06/09 07:56:33;;;;;;;5.60;4.45;;;22.30;8.30;;;;;;5080708;28;20028;-51
2022/06/09 07:59:00;;;;;;;5.00;4.50;;;22.50;8.20;;;;;;5082195;28;20520;-50
2022/06/09 08:01:27;;;;;;;4.57;4.18;;;22.60;8.10;;;;;;5085602;28;20028;-53
2022/06/09 08:03:53;;;;;;;5.75;4.93;;;22.40;8.00;;;;;;5084399;28;20048;-48
2022/06/09 08:06:19;;;;;;;4.70;4.30;;;22.50;8.20;;;;;;5063245;28;20519;-51
2022/06/09 08:08:44;;;;;;;6.50;5.28;;;22.50;8.10;;;;;;5077367;28;20024;-52
2022/06/09 08:11:10;;;;;;;8.80;5.25;;;22.60;8.10;;;;;;5073257;28;20032;-49
2022/06/09 08:13:36;;;;;;;7.20;5.72;;;22.60;8.30;;;;;;5079036;28;20090;-49
2022/06/09 08:16:04;;;;;;;5.60;5.18;;;22.60;4.90;;;;;;5079539;28;20020;-48
2022/06/09 08:18:30;;;;;;;9.18;8.27;;;22.70;7.90;;;;;;5079373;28;20073;-48
2022/06/09 08:20:56;;;;;;;4.85;3.88;;;22.80;7.60;;;;;;5079456;28;20335;-46
2022/06/09 08:23:25;;;;;;;4.68;4.10;;;22.80;5.70;;;;;;5086052;28;20044;-49
2022/06/09 08:25:54;;;;;;;5.95;4.70;;;22.90;5.50;;;;;;5080726;28;20074;-50
2022/06/09 08:28:20;;;;;;;6.35;3.72;;;22.90;5.80;;;;;;5085441;28;20032;-52
2022/06/09 08:30:52;;;;;;;3.67;3.38;;;22.90;5.90;;;;;;5081222;28;20029;-51
2022/06/09 08:33:19;;;;;;;5.43;3.40;;;23.10;3.50;;;;;;5084753;28;20047;-48
2022/06/09 08:35:44;;;;;;;3.90;2.83;;;23.10;4.40;;;;;;5083190;28;20069;-50
2022/06/09 08:38:11;;;;;;;4.40;3.15;;;23.20;2.80;;;;;;5084713;28;20044;-49
2022/06/09 08:41:00;;;;;;;4.53;3.60;;;23.10;2.90;;;;;;5079831;28;20474;-51
2022/06/09 08:43:58;;;;;;;5.05;3.45;;;23.30;1.00;;;;;;5083885;28;20028;-48
2022/06/09 08:46:39;;;;;;;3.88;3.45;;;23.10;1.00;;;;;;5088061;28;20423;-47
2022/06/09 08:49:17;;;;;;;4.57;3.72;;;23.20;1.00;;;;;;5077287;28;20036;-47
2022/06/09 08:51:47;;;;;;;3.78;3.38;;;23.20;1.00;;;;;;5085460;28;20094;-49
2022/06/09 08:54:21;;;;;;;4.57;2.90;;;23.40;1.00;;;;;;5085298;28;20032;-48
2022/06/09 08:56:48;;;;;;;6.75;3.58;;;23.40;1.00;;;;;;5078990;28;20036;-46
2022/06/09 08:59:17;;;;;;;4.15;3.30;;;23.50;1.00;;;;;;5079612;28;20036;-47
2022/06/09 09:02:02;;;;;;;5.20;3.67;;;23.40;1.00;;;;;;5080253;28;20043;-46
2022/06/09 09:04:53;;;;;;;5.35;3.42;;;23.50;1.00;;;;;;5075053;28;20044;-48
2022/06/09 09:07:27;;;;;;;5.72;3.83;;;23.60;1.00;;;;;;5075834;28;20024;-52
2022/06/09 09:10:19;;;;;;;4.22;3.20;;;23.70;1.00;;;;;;5088394;28;20071;-49
2022/06/09 09:12:50;;;;;;;3.65;3.35;;;23.60;1.00;;;;;;5083616;28;20045;-52
2022/06/09 09:15:35;;;;;;;4.30;3.17;;;23.70;1.00;;;;;;5074580;28;20040;-49
2022/06/09 09:18:07;;;;;;;3.78;2.47;;;23.80;1.00;;;;;;5084973;28;20107;-49
2022/06/09 09:20:38;;;;;;;5.10;2.80;;;23.90;1.00;;;;;;5072788;28;20032;-48
2022/06/09 09:23:15;;;;;;;2.45;2.17;;;24.00;1.00;;;;;;5087352;28;20016;-51
2022/06/09 09:25:57;;;;;;;2.75;1.90;;;24.10;1.00;;;;;;5083598;28;20029;-46
2022/06/09 09:28:31;;;;;;;2.40;1.30;;;24.20;1.00;;;;;;5074765;28;20099;-45
2022/06/09 09:31:01;;;;;;;1.90;0.90;;;24.50;1.00;;;;;;5069519;28;20036;-45
2022/06/09 09:33:28;;;;;;;1.55;1.08;;;24.70;1.00;;;;;;5071761;28;20401;-48
2022/06/09 09:35:59;;;;;;;2.17;0.70;;;24.70;1.00;;;;;;5077335;28;20016;-49
2022/06/09 09:38:44;;;;;;;5.32;4.05;;;24.90;1.00;;;;;;5071032;28;20111;-47
2022/06/09 09:41:26;;;;;;;3.55;2.70;;;24.80;1.00;;;;;;5062554;28;20474;-46
2022/06/09 09:43:53;;;;;;;2.40;1.02;;;25.20;1.00;;;;;;5080066;28;20107;-50
2022/06/09 09:46:39;;;;;;;1.55;0.73;;;25.20;1.00;;;;;;5086901;28;20028;-50
2022/06/09 09:49:15;;;;;;;3.20;0.88;;;25.10;1.00;;;;;;5072981;28;20115;-47
2022/06/09 09:51:43;;;;;;;1.85;0.80;;;25.20;1.00;;;;;;5081005;28;20099;-49
2022/06/09 09:54:19;;;;;;;1.35;0.40;;;25.40;1.00;;;;;;5079753;28;20028;-50
2022/06/09 09:56:46;;;;;;;0.80;0.80;;;25.60;1.00;;;;;;5078107;28;20066;-50
2022/06/09 09:59:22;;;;;;;2.90;1.10;;;25.40;1.00;;;;;;5083253;28;20496;-50
2022/06/09 10:10:13;;;;;;;1.40;0.40;;;25.90;1.00;;;;;;5076917;28;20116;-54
2022/06/09 10:12:39;;;;;;;1.25;0.40;;;25.90;1.00;;;;;;5065612;28;20363;-49
2022/06/09 10:15:13;;;;;;;1.52;0.40;;;26.00;1.00;;;;;;5075065;28;20043;-49
2022/06/09 10:17:48;;;;;;;1.17;0.45;;;25.90;1.00;;;;;;5083512;28;20374;-47
2022/06/09 10:20:14;;;;;;;1.48;0.32;;;26.10;1.00;;;;;;5073161;28;20020;-47
2022/06/09 10:22:42;;;;;;;0.95;0.30;;;26.10;1.00;;;;;;5084144;28;20378;-48
2022/06/09 10:25:24;;;;;;;0.85;0.30;;;26.20;1.00;;;;;;5073430;28;20024;-45
2022/06/09 10:28:01;;;;;;;1.63;0.60;;;26.40;1.00;;;;;;5084305;28;20029;-47
2022/06/09 10:30:34;;;;;;;0.75;0.50;;;26.60;1.00;;;;;;5060391;28;20119;-45
2022/06/09 10:33:27;;;;;;;0.30;0.30;;;26.40;1.00;;;;;;5080724;28;20044;-49
2022/06/09 10:36:01;;;;;;;2.50;0.65;;;26.50;1.00;;;;;;5091238;28;20031;-49
2022/06/09 10:38:43;;;;;;;;;;;26.50;1.00;;;;;;5082917;28;20029;-48
2022/06/09 10:41:16;;;;;;;0.32;0.30;;;26.70;1.00;;;;;;5076504;28;19914;-46
2022/06/09 10:43:54;;;;;;;2.45;0.57;;;26.60;1.00;;;;;;5080375;28;20038;-51
2022/06/09 10:46:40;;;;;;;3.03;0.50;;;26.70;1.00;;;;;;5091132;28;20548;-46
2022/06/09 10:55:15;;;;;;;1.30;0.50;;;26.70;1.00;;;;;;5072572;28;20496;-47
2022/06/09 10:57:51;;;;;;;1.65;0.50;;;26.80;1.00;;;;;;5072644;28;20024;-47
2022/06/09 11:00:31;;;;;;;0.60;0.40;;;26.80;1.00;;;;;;5085610;28;20055;-48
2022/06/09 11:03:00;;;;;;;0.93;0.30;;;26.90;1.00;;;;;;5080256;28;20056;-47
2022/06/09 11:05:54;;;;;;;0.93;0.63;;;27.10;1.00;;;;;;5072765;28;20028;-48
2022/06/09 11:08:46;;;;;;;0.88;0.50;;;27.00;1.00;;;;;;5072808;28;20067;-48
2022/06/09 11:11:24;;;;;;;1.25;0.75;;;27.20;1.00;;;;;;5080416;28;20381;-48
2022/06/09 11:14:15;;;;;;;3.00;1.08;;;27.40;1.00;;;;;;5082130;28;20402;-48
2022/06/09 11:17:18;;;;;;;3.05;2.75;;;27.70;1.00;;;;;;5091991;28;20028;-47
2022/06/09 11:19:55;;;;;;;1.25;1.15;;;27.80;1.00;;;;;;5081118;28;20021;-46
2022/06/09 11:22:51;;;;;;;3.53;2.03;;;27.90;1.00;;;;;;5072787;28;20038;-47
2022/06/09 11:25:22;;;;;;;1.40;0.98;;;28.30;1.00;;;;;;5084893;28;20048;-49
2022/06/09 11:28:00;;;;;;;1.50;1.05;;;28.80;1.00;;;;;;5080341;28;20036;-46
2022/06/09 11:30:55;;;;;;;2.40;0.75;;;29.00;1.00;;;;;;5072704;28;20552;-47
2022/06/09 11:33:52;;;;;;;2.63;1.00;;;28.90;1.00;;;;;;5084804;28;20439;-46
2022/06/09 11:36:45;;;;;;;1.02;0.93;;;29.80;1.00;;;;;;5075424;28;20434;-47
2022/06/09 11:39:37;;;;;;;4.82;1.02;;;29.90;1.00;;;;;;5075322;28;20020;-48
2022/06/09 11:42:29;;;;;;;1.42;0.75;;;30.40;1.00;;;;;;5070031;28;20024;-46
2022/06/09 11:44:58;;;;;;;2.97;0.75;;;30.90;1.00;;;;;;5079956;28;20115;-47
2022/06/09 11:47:31;;;;;;;1.10;0.73;;;30.90;1.00;;;;;;5082495;28;20036;-50
2022/06/09 11:50:03;;;;;;;1.98;0.80;;;31.10;1.00;;;;;;5076217;28;20050;-50
2022/06/09 11:52:46;;;;;;;1.85;1.08;;;31.20;1.00;;;;;;5076571;28;20048;-49
2022/06/09 11:58:33;;;;;;;2.22;1.27;;;31.60;1.00;;;;;;5091650;28;20583;-47
2022/06/09 12:01:40;;;;;;;2.30;1.38;;;31.90;1.00;;;;;;5081751;28;20378;-47
2022/06/09 12:04:09;;;;;;;1.95;1.27;;;32.40;1.00;;;;;;5067605;28;20577;-49
2022/06/09 12:06:35;;;;;;;9.40;3.88;;;33.00;1.00;;;;;;5067203;28;20381;-47
2022/06/09 12:09:30;;;;;;;2.80;2.17;;;33.30;1.00;;;;;;5093784;28;20028;-49
2022/06/09 12:11:58;;;;;;;1.70;1.42;;;33.30;1.00;;;;;;5090352;28;20021;-46
2022/06/09 12:14:37;;;;;;;2.08;1.10;;;33.90;1.00;;;;;;5083501;28;20029;-49
2022/06/09 12:17:20;;;;;;;2.40;1.00;;;34.30;1.00;;;;;;5079767;28;20020;-50
2022/06/09 12:20:04;;;;;;;3.95;1.33;;;34.00;1.00;;;;;;5081526;28;20074;-48
2022/06/09 12:22:48;;;;;;;1.90;1.50;;;32.60;1.00;;;;;;5080772;28;20031;-51
2022/06/09 12:25:17;;;;;;;2.67;1.10;;;32.30;1.00;;;;;;5094370;28;20088;-49
2022/06/09 12:27:48;;;;;;;1.15;1.15;;;31.70;1.00;;;;;;5086493;28;20017;-48
2022/06/09 12:30:39;;;;;;;1.15;1.10;;;32.00;1.00;;;;;;5090264;28;20039;-47
2022/06/09 12:33:13;;;;;;;2.05;1.67;;;32.30;1.00;;;;;;5093557;28;20035;-49
2022/06/09 12:35:47;;;;;;;0.95;0.95;;;33.00;1.00;;;;;;5094171;28;20024;-49
2022/06/09 12:38:29;;;;;;;1.15;1.10;;;32.80;1.00;;;;;;5073550;28;20124;-48
2022/06/09 12:40:59;;;;;;;1.20;1.20;;;34.10;1.00;;;;;;5081508;28;20043;-50
2022/06/09 12:43:34;;;;;;;3.35;1.45;;;36.50;1.00;;;;;;5092692;28;20497;-47
2022/06/09 12:46:20;;;;;;;1.20;1.20;;;37.50;1.00;;;;;;5076081;28;20024;-49
2022/06/09 12:48:47;;;;;;;3.20;1.70;;;37.50;1.00;;;;;;5087873;28;20066;-52
2022/06/09 12:51:29;;;;;;;5.07;2.05;;;38.20;1.00;;;;;;5077054;28;20123;-51
2022/06/09 12:53:57;;;;;;;2.13;1.80;;;39.40;1.00;;;;;;5075066;28;20068;-48
2022/06/09 12:56:37;;;;;;;2.22;1.98;;;40.20;1.00;;;;;;5082553;28;20452;-48
2022/06/09 12:59:16;;;;;;;3.13;1.77;;;39.10;1.00;;;;;;5088224;28;20493;-46
2022/06/09 13:01:51;;;;;;;1.48;1.48;;;38.60;1.00;;;;;;5075657;28;20020;-47
2022/06/09 13:04:18;;;;;;;2.30;1.80;;;37.90;1.00;;;;;;5077211;28;20513;-47
2022/06/09 13:06:47;;;;;;;1.60;1.30;;;36.40;1.00;;;;;;5075802;28;20502;-49
2022/06/09 13:09:27;;;;;;;1.70;1.70;;;35.20;1.00;;;;;;5075864;28;20016;-49
2022/06/09 13:14:41;;;;;;;1.80;1.70;;;35.30;1.00;;;;;;5074563;28;20055;-51
2022/06/09 13:17:17;;;;;;;1.52;1.48;;;36.10;1.00;;;;;;5074157;28;20025;-50
2022/06/09 13:19:51;;;;;;;1.50;1.50;;;35.80;1.00;;;;;;5074700;28;20036;-48
2022/06/09 13:22:18;;;;;;;1.92;1.83;;;35.10;1.00;;;;;;5075070;28;20469;-50
2022/06/09 13:24:45;;;;;;;1.75;1.65;;;34.40;1.00;;;;;;5081030;28;20029;-51
2022/06/09 13:27:14;;;;;;;1.75;1.60;;;34.60;1.00;;;;;;5088135;28;20428;-49
2022/06/09 13:30:07;;;;;;;2.53;1.70;;;33.90;1.00;;;;;;5086623;28;20039;-50